GVNP

Details ICAO GVNP (RAI)
Name PRAIA INTERNATIONAL
Region Cape Verde
Timezone Atlantic/Cape_Verde (UTC-1.0)
Plans Departing 150
Arriving 182
Stats Elevation 229 ft / 70 m (AMSL)
Location 14.941100° -23.484700°
Runways 1
Magnetic Variation 9.781° W
Sunrise 2018-10-17 07:26:54 UTC / 2018-10-17 06:26:54 Local
Sunset 2018-10-17 19:13:59 UTC / 2018-10-17 18:13:59 Local
Advertisement - Login to hide

Runways

ID Width Length Bearing (true/mag) Surface Threshold Overrun Markings Lighting
03 148 ft / 45 m 6,896 ft / 2,102 m 21.85° / 31.63° ASPHALT 650 ft / 198 m 0 ft / 0 m PREC-APP CENTERLINE EDGE THRESHOLD MALS
21 148 ft / 45 m 6,896 ft / 2,102 m 201.85° / 211.63° ASPHALT 0 ft / 0 m 0 ft / 0 m PREC-APP CENTERLINE EDGE THRESHOLD SALS

Map

Weather


0- 5 10 15 20 25 30 35+ Temperature / °C

Clouds and Precipitation
Forecast for 2018-10-17 18:00 UTC. Updated 5 hours ago

Ground ~20,000 ft ~40,000 ft Winds

METAR

GVNP 172000Z 03014KT 9999 FEW016 27/23 Q1015 NOSIG

TAF

TAF GVNP 171700Z 1718/1824 03015KT 9999 SCT017 PROB30 TEMPO 1802/1806 03005KT

Frequencies

Tower 118.20 MHz Praia Tower
Approach 118.20 MHz Praia Approach
Warning: Do not use this data for real-world aviation or navigation. No guarantee of current accuracy is given.